createdAt,value
2023-02-16T00:00:20.073Z,1.10
2023-02-16T00:02:47.732Z,1.10
2023-02-16T00:05:31.680Z,1.10
2023-02-16T00:08:00.523Z,1.00
2023-02-16T00:10:31.960Z,1.00
2023-02-16T00:13:17.783Z,1.00
2023-02-16T00:15:45.359Z,0.90
2023-02-16T00:18:20.885Z,0.90
2023-02-16T00:20:50.295Z,0.80
2023-02-16T00:23:17.549Z,0.70
2023-02-16T00:25:44.757Z,0.70
2023-02-16T00:28:20.342Z,0.70
2023-02-16T00:30:48.545Z,0.70
2023-02-16T00:33:20.597Z,0.60
2023-02-16T00:35:48.309Z,0.50
2023-02-16T00:38:16.819Z,0.40
2023-02-16T00:40:44.336Z,0.40
2023-02-16T00:43:28.126Z,0.30
2023-02-16T00:45:56.630Z,0.30
2023-02-16T00:48:24.461Z,0.30
2023-02-16T00:50:53.801Z,0.30
2023-02-16T00:53:21.017Z,0.30
2023-02-16T00:55:48.231Z,0.20
2023-02-16T00:58:30.933Z,0.20
2023-02-16T01:01:07.385Z,0.20
2023-02-16T01:03:34.517Z,0.20
2023-02-16T01:06:20.229Z,0.10
2023-02-16T01:09:08.738Z,0.10
2023-02-16T01:11:36.025Z,0.10
2023-02-16T01:14:03.244Z,0.20
2023-02-16T01:16:41.446Z,0.20
2023-02-16T01:19:11.352Z,0.20
2023-02-16T01:21:38.378Z,0.20
2023-02-16T01:24:05.616Z,0.20
2023-02-16T01:26:37.510Z,0.20
2023-02-16T01:29:04.891Z,0.20
2023-02-16T01:31:32.061Z,0.10
2023-02-16T01:33:59.308Z,0.10
2023-02-16T01:36:39.487Z,0.10
2023-02-16T01:39:07.780Z,0.00
2023-02-16T01:42:05.175Z,0.00
2023-02-16T01:45:00.246Z,0.00
2023-02-16T01:47:51.966Z,-0.10
2023-02-16T01:50:26.372Z,-0.10
2023-02-16T01:53:06.252Z,-0.20
2023-02-16T01:55:41.625Z,-0.10
2023-02-16T01:58:31.914Z,-0.10
2023-02-16T02:00:59.179Z,0.00
2023-02-16T02:03:53.741Z,0.00
2023-02-16T02:06:32.918Z,0.00
2023-02-16T02:09:10.239Z,0.00
2023-02-16T02:12:03.934Z,0.00
2023-02-16T02:14:38.580Z,0.00
2023-02-16T02:17:13.558Z,0.00
2023-02-16T02:20:04.457Z,-0.10
2023-02-16T02:23:31.383Z,-0.20
2023-02-16T02:26:24.948Z,-0.30
2023-02-16T02:29:45.766Z,-0.50
2023-02-16T02:32:17.059Z,-0.70
2023-02-16T02:34:45.250Z,-0.80
2023-02-16T02:37:21.241Z,-0.80
2023-02-16T02:40:15.144Z,-0.80
2023-02-16T02:42:52.216Z,-0.90
2023-02-16T02:45:25.267Z,-0.80
2023-02-16T02:47:52.904Z,-0.70
2023-02-16T02:50:30.327Z,-0.60
2023-02-16T02:53:01.618Z,-0.60
2023-02-16T02:55:52.330Z,-0.50
2023-02-16T02:58:41.987Z,-0.50
2023-02-16T03:01:10.337Z,-0.50
2023-02-16T03:03:43.832Z,-0.40
2023-02-16T03:06:17.712Z,-0.40
2023-02-16T03:08:47.953Z,-0.40
2023-02-16T03:11:48.261Z,-0.30
2023-02-16T03:14:32.302Z,-0.30
2023-02-16T03:17:20.700Z,-0.30
2023-02-16T03:20:09.844Z,-0.30
2023-02-16T03:22:56.838Z,-0.30
2023-02-16T03:25:45.303Z,-0.30
2023-02-16T03:28:32.509Z,-0.30
2023-02-16T03:31:01.726Z,-0.40
2023-02-16T03:33:29.934Z,-0.40
2023-02-16T03:35:58.290Z,-0.60
2023-02-16T03:38:26.396Z,-0.60
2023-02-16T03:40:55.018Z,-0.70
2023-02-16T03:43:27.209Z,-0.80
2023-02-16T03:45:54.687Z,-0.90
2023-02-16T03:48:22.042Z,-1.00
2023-02-16T03:50:49.108Z,-1.00
2023-02-16T03:53:18.224Z,-1.00
2023-02-16T03:55:48.162Z,-1.10
2023-02-16T03:58:21.549Z,-1.10
2023-02-16T04:00:49.173Z,-1.10
2023-02-16T04:03:16.882Z,-1.10
2023-02-16T04:05:44.750Z,-1.10
2023-02-16T04:08:12.476Z,-1.10
2023-02-16T04:10:40.176Z,-1.10
2023-02-16T04:13:07.734Z,-1.10
2023-02-16T04:15:35.542Z,-1.00
2023-02-16T04:18:03.114Z,-1.00
2023-02-16T04:20:32.769Z,-1.00
2023-02-16T04:22:59.986Z,-1.00
2023-02-16T04:25:27.653Z,-0.90
2023-02-16T04:27:55.415Z,-0.90
2023-02-16T04:30:26.190Z,-0.90
2023-02-16T04:32:53.983Z,-0.90
2023-02-16T04:35:22.233Z,-0.90
2023-02-16T04:37:49.631Z,-0.90
2023-02-16T04:40:17.793Z,-0.80
2023-02-16T04:42:45.712Z,-0.80
2023-02-16T04:45:13.494Z,-0.80
2023-02-16T04:47:40.740Z,-0.80
2023-02-16T04:50:08.415Z,-0.90
2023-02-16T04:52:36.896Z,-0.90
2023-02-16T04:55:05.933Z,-0.90
2023-02-16T04:57:33.141Z,-0.90
2023-02-16T05:00:00.333Z,-0.90
2023-02-16T05:02:27.360Z,-0.90
2023-02-16T05:04:54.553Z,-1.00
2023-02-16T05:07:21.792Z,-0.90
2023-02-16T05:09:48.806Z,-0.90
2023-02-16T05:12:34.143Z,-0.80
2023-02-16T05:15:01.163Z,-0.80
2023-02-16T05:17:28.639Z,-0.80
2023-02-16T05:19:58.238Z,-0.70
2023-02-16T05:22:26.339Z,-0.60
2023-02-16T05:24:53.451Z,-0.60
2023-02-16T05:27:25.874Z,-0.60
2023-02-16T05:29:53.013Z,-0.60
2023-02-16T05:32:20.438Z,-0.60
2023-02-16T05:34:47.765Z,-0.50
2023-02-16T05:37:17.129Z,-0.50
2023-02-16T05:39:45.106Z,-0.60
2023-02-16T05:42:12.258Z,-0.60
2023-02-16T05:44:39.621Z,-0.60
2023-02-16T05:47:06.954Z,-0.60
2023-02-16T05:49:34.117Z,-0.60
2023-02-16T05:52:01.234Z,-0.60
2023-02-16T05:54:28.507Z,-0.60
2023-02-16T05:56:55.984Z,-0.60
2023-02-16T05:59:23.278Z,-0.50
2023-02-16T06:01:52.157Z,-0.40
2023-02-16T06:04:20.742Z,-0.40
2023-02-16T06:06:48.112Z,-0.30
2023-02-16T06:09:15.318Z,-0.30
2023-02-16T06:11:42.812Z,-0.20
2023-02-16T06:14:17.105Z,-0.20
2023-02-16T06:16:47.607Z,-0.10
2023-02-16T06:19:17.020Z,0.00
2023-02-16T06:21:44.597Z,0.00
2023-02-16T06:24:13.369Z,0.10
2023-02-16T06:26:41.251Z,0.20
2023-02-16T06:29:08.958Z,0.20
2023-02-16T06:31:37.016Z,0.30
2023-02-16T06:34:05.264Z,0.40
2023-02-16T06:36:33.089Z,0.50
2023-02-16T06:39:00.227Z,0.60
2023-02-16T06:44:13.744Z,0.90
2023-02-16T06:46:46.041Z,1.10
2023-02-16T06:49:15.498Z,1.50
2023-02-16T06:51:42.628Z,2.00
2023-02-16T06:54:10.125Z,2.50
2023-02-16T06:56:38.034Z,3.10
2023-02-16T06:59:05.670Z,3.20
2023-02-16T07:01:32.793Z,2.90
2023-02-16T07:03:59.789Z,3.30
2023-02-16T07:06:28.673Z,3.00
2023-02-16T07:08:56.145Z,2.90
2023-02-16T07:11:23.541Z,2.90
2023-02-16T07:13:51.150Z,3.00
2023-02-16T07:16:18.366Z,3.00
2023-02-16T07:18:46.659Z,3.10
2023-02-16T07:21:14.121Z,3.30
2023-02-16T07:23:41.368Z,3.40
2023-02-16T07:26:08.857Z,3.30
2023-02-16T07:28:35.880Z,3.70
2023-02-16T07:31:11.863Z,4.20
2023-02-16T07:33:39.674Z,4.20
2023-02-16T07:36:07.539Z,4.50
2023-02-16T07:45:57.877Z,5.20
2023-02-16T07:48:25.029Z,5.80
2023-02-16T07:50:52.392Z,5.70
2023-02-16T07:53:19.535Z,5.60
2023-02-16T07:55:46.918Z,5.70
2023-02-16T07:58:27.289Z,5.80
2023-02-16T08:01:11.356Z,5.80
2023-02-16T08:03:39.046Z,6.10
2023-02-16T08:06:07.563Z,5.90
2023-02-16T08:08:35.624Z,6.60
2023-02-16T08:11:29.039Z,7.00
2023-02-16T08:26:23.980Z,7.60
2023-02-16T08:28:51.564Z,8.20
2023-02-16T08:31:24.860Z,8.50
2023-02-16T08:33:53.580Z,8.20
2023-02-16T08:36:26.518Z,8.70
2023-02-16T08:38:54.572Z,8.50
2023-02-16T08:41:23.922Z,8.80
2023-02-16T08:43:53.954Z,9.00
2023-02-16T08:46:21.802Z,8.80
2023-02-16T08:48:49.323Z,8.70
2023-02-16T08:51:19.025Z,8.00
2023-02-16T08:53:46.809Z,7.70
2023-02-16T08:56:14.948Z,7.80
2023-02-16T08:58:44.748Z,8.30
2023-02-16T09:01:13.403Z,8.50
2023-02-16T09:03:43.028Z,8.70
2023-02-16T09:06:12.373Z,8.80
2023-02-16T09:08:40.242Z,8.90
2023-02-16T09:11:11.793Z,9.00
2023-02-16T09:13:41.101Z,9.10
2023-02-16T09:16:11.690Z,9.00
2023-02-16T09:18:40.350Z,8.70
2023-02-16T09:21:12.174Z,8.70
2023-02-16T09:23:41.399Z,8.70
2023-02-16T09:26:11.929Z,8.90
2023-02-16T09:28:40.259Z,8.80
2023-02-16T09:31:11.674Z,8.90
2023-02-16T09:33:40.378Z,8.70
2023-02-16T09:36:09.146Z,8.90
2023-02-16T09:38:37.934Z,8.80
2023-02-16T09:41:30.906Z,9.00
2023-02-16T09:44:24.258Z,9.00
2023-02-16T09:46:52.677Z,8.90
2023-02-16T09:49:41.339Z,9.30
2023-02-16T09:52:08.449Z,9.00
2023-02-16T09:55:07.519Z,8.90
2023-02-16T09:57:55.982Z,8.60
2023-02-16T10:00:34.836Z,8.80
2023-02-16T10:03:37.525Z,8.60
2023-02-16T10:06:14.110Z,8.40
2023-02-16T10:08:53.374Z,8.90
2023-02-16T10:11:38.288Z,9.00
2023-02-16T10:14:31.954Z,8.80
2023-02-16T10:17:06.922Z,8.50
2023-02-16T10:19:48.549Z,8.60
2023-02-16T10:22:23.895Z,8.40
2023-02-16T10:25:22.264Z,8.60
2023-02-16T10:28:04.414Z,8.60
2023-02-16T10:30:32.805Z,8.90
2023-02-16T10:33:16.276Z,8.90
2023-02-16T10:35:53.846Z,8.70
2023-02-16T10:38:31.324Z,8.70
2023-02-16T10:41:22.889Z,8.50
2023-02-16T10:43:57.072Z,8.50
2023-02-16T10:46:27.012Z,8.50
2023-02-16T10:48:55.256Z,8.80
2023-02-16T10:51:28.266Z,9.10
2023-02-16T10:54:05.590Z,9.10
2023-02-16T10:56:49.535Z,8.90
2023-02-16T10:59:23.702Z,8.80
2023-02-16T11:01:57.618Z,8.80
2023-02-16T11:04:46.734Z,9.10
2023-02-16T11:07:20.264Z,9.10
2023-02-16T11:09:55.878Z,9.20
2023-02-16T11:12:36.234Z,9.30
2023-02-16T11:15:12.363Z,9.10
2023-02-16T11:18:30.370Z,8.90
2023-02-16T11:20:58.958Z,9.00
2023-02-16T11:23:27.794Z,9.30
2023-02-16T11:26:03.718Z,9.20
2023-02-16T11:28:35.246Z,9.00
2023-02-16T11:31:17.783Z,8.80
2023-02-16T11:34:01.224Z,8.80
2023-02-16T11:36:36.243Z,9.00
2023-02-16T11:39:12.264Z,9.30
2023-02-16T11:41:46.314Z,9.20
2023-02-16T11:44:53.827Z,9.20
2023-02-16T11:47:25.608Z,9.20
2023-02-16T11:50:28.532Z,9.10
2023-02-16T11:53:11.499Z,8.90
2023-02-16T11:55:43.241Z,8.80
2023-02-16T11:58:14.505Z,8.90
2023-02-16T12:01:22.692Z,9.00
2023-02-16T12:04:20.616Z,9.30
2023-02-16T12:07:07.786Z,9.30
2023-02-16T12:10:13.812Z,9.50
2023-02-16T12:12:47.305Z,9.50
2023-02-16T12:15:39.584Z,9.10
2023-02-16T12:18:06.775Z,9.00
2023-02-16T12:20:43.662Z,9.10
2023-02-16T12:23:13.736Z,9.10
2023-02-16T12:26:07.351Z,9.20
2023-02-16T12:29:01.848Z,9.30
2023-02-16T12:31:54.260Z,9.30
2023-02-16T12:34:42.699Z,9.00
2023-02-16T12:37:35.878Z,9.00
2023-02-16T12:40:32.648Z,9.10
2023-02-16T12:43:06.289Z,9.30
2023-02-16T12:45:38.730Z,9.20
2023-02-16T12:48:27.563Z,9.20
2023-02-16T12:50:56.870Z,9.20
2023-02-16T12:53:30.311Z,9.20
2023-02-16T12:56:01.686Z,9.20
2023-02-16T12:58:45.358Z,9.20
2023-02-16T13:01:17.331Z,9.20
2023-02-16T13:04:36.334Z,9.30
2023-02-16T13:07:21.149Z,9.30
2023-02-16T13:10:02.285Z,9.20
2023-02-16T13:13:09.069Z,9.20
2023-02-16T13:15:46.220Z,9.20
2023-02-16T13:18:28.586Z,9.30
2023-02-16T13:21:04.329Z,9.40
2023-02-16T13:23:54.703Z,9.50
2023-02-16T13:26:39.711Z,9.60
2023-02-16T13:29:25.215Z,9.50
2023-02-16T13:32:29.542Z,9.50
2023-02-16T13:35:12.942Z,9.60
2023-02-16T13:37:45.937Z,9.60
2023-02-16T13:40:41.260Z,9.70
2023-02-16T13:43:14.478Z,9.80
2023-02-16T13:45:44.593Z,9.90
2023-02-16T13:48:33.447Z,9.90
2023-02-16T13:51:05.260Z,9.80
2023-02-16T13:53:41.940Z,9.80
2023-02-16T13:56:26.638Z,9.80
2023-02-16T13:58:53.854Z,9.90
2023-02-16T14:01:34.260Z,9.80
2023-02-16T14:04:02.424Z,9.80
2023-02-16T14:06:40.161Z,9.70
2023-02-16T14:09:16.736Z,9.70
2023-02-16T14:11:57.516Z,9.70
2023-02-16T14:14:42.447Z,9.70
2023-02-16T14:17:24.641Z,9.70
2023-02-16T14:20:15.132Z,9.70
2023-02-16T14:22:51.152Z,9.70
2023-02-16T14:25:22.313Z,9.60
2023-02-16T14:27:57.313Z,9.60
2023-02-16T14:30:42.693Z,9.60
2023-02-16T14:33:12.607Z,9.50
2023-02-16T14:35:42.039Z,9.50
2023-02-16T14:38:43.463Z,9.40
2023-02-16T14:41:35.712Z,9.40
2023-02-16T14:44:21.815Z,9.50
2023-02-16T14:47:16.543Z,9.40
2023-02-16T14:49:58.454Z,9.30
2023-02-16T14:52:53.163Z,9.20
2023-02-16T14:55:44.051Z,9.20
2023-02-16T14:58:30.153Z,9.10
2023-02-16T15:01:12.710Z,9.10
2023-02-16T15:03:51.732Z,9.00
2023-02-16T15:06:53.871Z,9.00
2023-02-16T15:09:32.639Z,8.90
2023-02-16T15:12:22.513Z,8.80
2023-02-16T15:15:01.863Z,8.70
2023-02-16T15:17:31.520Z,8.70
2023-02-16T15:20:07.467Z,8.70
2023-02-16T15:22:38.893Z,8.50
2023-02-16T15:25:38.586Z,8.50
2023-02-16T15:28:20.326Z,8.50
2023-02-16T15:30:50.996Z,8.40
2023-02-16T15:33:24.366Z,8.40
2023-02-16T15:35:59.629Z,8.30
2023-02-16T15:38:32.971Z,8.20
2023-02-16T15:41:07.190Z,8.10
2023-02-16T15:43:43.673Z,8.10
2023-02-16T15:46:32.785Z,8.00
2023-02-16T15:49:13.348Z,8.00
2023-02-16T15:51:41.892Z,8.00
2023-02-16T15:54:21.991Z,7.90
2023-02-16T15:56:55.589Z,7.90
2023-02-16T15:59:41.475Z,7.90
2023-02-16T16:02:19.278Z,7.80
2023-02-16T16:04:54.920Z,7.80
2023-02-16T16:07:29.218Z,7.80
2023-02-16T16:09:58.144Z,7.70
2023-02-16T16:12:26.856Z,7.70
2023-02-16T16:14:56.274Z,7.70
2023-02-16T16:17:32.583Z,7.60
2023-02-16T16:20:38.510Z,7.60
2023-02-16T16:23:18.816Z,7.50
2023-02-16T16:25:48.097Z,7.60
2023-02-16T16:28:36.738Z,7.50
2023-02-16T16:31:20.758Z,7.50
2023-02-16T16:33:57.014Z,7.40
2023-02-16T16:36:32.130Z,7.40
2023-02-16T16:39:11.538Z,7.40
2023-02-16T16:41:40.387Z,7.30
2023-02-16T16:44:12.554Z,7.20
2023-02-16T16:46:40.098Z,7.20
2023-02-16T16:49:16.075Z,7.10
2023-02-16T16:51:44.050Z,7.10
2023-02-16T16:54:33.381Z,7.10
2023-02-16T16:57:17.692Z,7.00
2023-02-16T16:59:45.059Z,6.90
2023-02-16T17:02:12.695Z,6.90
2023-02-16T17:04:39.899Z,6.80
2023-02-16T17:07:07.067Z,6.80
2023-02-16T17:09:34.230Z,6.70
2023-02-16T17:12:01.633Z,6.70
2023-02-16T17:14:29.056Z,6.60
2023-02-16T17:16:56.562Z,6.60
2023-02-16T17:19:23.828Z,6.60
2023-02-16T17:21:50.873Z,6.50
2023-02-16T17:24:18.070Z,6.50
2023-02-16T17:26:45.284Z,6.40
2023-02-16T17:29:12.547Z,6.40
2023-02-16T17:31:39.745Z,6.30
2023-02-16T17:34:06.744Z,6.20
2023-02-16T17:36:34.649Z,6.20
2023-02-16T17:39:02.031Z,6.20
2023-02-16T17:41:30.070Z,6.20
2023-02-16T17:43:57.590Z,6.10
2023-02-16T17:46:26.844Z,6.00
2023-02-16T17:48:55.541Z,6.00
2023-02-16T17:51:25.346Z,6.00
2023-02-16T17:53:52.811Z,5.90
2023-02-16T17:56:23.771Z,5.90
2023-02-16T17:58:51.453Z,5.80
2023-02-16T18:01:20.103Z,5.80
2023-02-16T18:03:47.673Z,5.80
2023-02-16T18:06:17.374Z,5.70
2023-02-16T18:08:45.341Z,5.70
2023-02-16T18:11:12.938Z,5.60
2023-02-16T18:13:40.230Z,5.60
2023-02-16T18:16:08.559Z,5.50
2023-02-16T18:18:39.496Z,5.50
2023-02-16T18:21:07.355Z,5.50
2023-02-16T18:23:34.478Z,5.40
2023-02-16T18:26:02.032Z,5.40
2023-02-16T18:28:31.279Z,5.30
2023-02-16T18:30:59.084Z,5.20
2023-02-16T18:33:26.773Z,5.20
2023-02-16T18:35:57.443Z,5.10
2023-02-16T18:38:24.963Z,5.10
2023-02-16T18:40:55.661Z,5.10
2023-02-16T18:43:23.221Z,5.00
2023-02-16T18:45:50.502Z,5.00
2023-02-16T18:48:17.679Z,5.00
2023-02-16T18:50:45.000Z,4.90
2023-02-16T18:53:12.069Z,4.90
2023-02-16T18:55:39.205Z,4.80
2023-02-16T18:58:08.391Z,4.80
2023-02-16T19:00:36.617Z,4.70
2023-02-16T19:03:04.862Z,4.60
2023-02-16T19:05:32.627Z,4.60
2023-02-16T19:07:59.858Z,4.60
2023-02-16T19:10:27.515Z,4.50
2023-02-16T19:12:54.613Z,4.50
2023-02-16T19:15:21.968Z,4.50
2023-02-16T19:17:49.987Z,4.50
2023-02-16T19:20:18.719Z,4.40
2023-02-16T19:22:47.147Z,4.40
2023-02-16T19:25:15.375Z,4.40
2023-02-16T19:27:43.957Z,4.40
2023-02-16T19:30:12.298Z,4.30
2023-02-16T19:32:41.218Z,4.30
2023-02-16T19:35:12.177Z,4.40
2023-02-16T19:37:39.828Z,4.40
2023-02-16T19:40:08.723Z,4.40
2023-02-16T19:42:36.683Z,4.40
2023-02-16T19:45:04.321Z,4.50
2023-02-16T19:47:31.666Z,4.40
2023-02-16T19:49:58.872Z,4.40
2023-02-16T19:52:26.171Z,4.40
2023-02-16T19:54:53.385Z,4.40
2023-02-16T19:57:21.180Z,4.30
2023-02-16T19:59:48.550Z,4.30
2023-02-16T20:02:15.803Z,4.20
2023-02-16T20:04:44.874Z,4.20
2023-02-16T20:07:12.295Z,4.20
2023-02-16T20:09:39.966Z,4.20
2023-02-16T20:12:07.309Z,4.20
2023-02-16T20:14:34.713Z,4.20
2023-02-16T20:17:01.968Z,4.20
2023-02-16T20:19:29.606Z,4.10
2023-02-16T20:21:56.937Z,4.10
2023-02-16T20:24:24.151Z,4.10
2023-02-16T20:26:52.156Z,4.10
2023-02-16T20:29:20.944Z,4.10
2023-02-16T20:31:54.463Z,4.10
2023-02-16T20:34:22.487Z,4.00
2023-02-16T20:36:49.792Z,4.00
2023-02-16T20:39:17.023Z,4.00
2023-02-16T20:41:44.725Z,3.90
2023-02-16T20:44:12.879Z,3.90
2023-02-16T20:46:41.133Z,4.00
2023-02-16T20:49:08.419Z,3.90
2023-02-16T20:51:37.300Z,3.90
2023-02-16T20:54:05.553Z,3.90
2023-02-16T20:56:32.943Z,3.80
2023-02-16T20:59:01.557Z,3.80
2023-02-16T21:01:37.432Z,3.80
2023-02-16T21:04:06.789Z,3.70
2023-02-16T21:06:34.952Z,3.80
2023-02-16T21:09:03.428Z,3.80
2023-02-16T21:11:30.863Z,3.70
2023-02-16T21:13:58.622Z,3.70
2023-02-16T21:16:26.231Z,3.70
2023-02-16T21:18:53.978Z,3.70
2023-02-16T21:21:21.521Z,3.70
2023-02-16T21:23:51.221Z,3.70
2023-02-16T21:26:19.921Z,3.70
2023-02-16T21:28:47.163Z,3.60
2023-02-16T21:31:18.020Z,3.60
2023-02-16T21:33:45.535Z,3.60
2023-02-16T21:36:18.867Z,3.60
2023-02-16T21:38:46.105Z,3.50
2023-02-16T21:41:26.309Z,3.50
2023-02-16T21:44:14.239Z,3.40
2023-02-16T21:46:47.287Z,3.40
2023-02-16T21:49:19.829Z,3.40
2023-02-16T21:51:49.169Z,3.30
2023-02-16T21:54:39.115Z,3.30
2023-02-16T21:57:06.215Z,3.30
2023-02-16T21:59:33.902Z,3.30
2023-02-16T22:02:01.068Z,3.30
2023-02-16T22:04:28.092Z,3.20
2023-02-16T22:06:56.132Z,3.20
2023-02-16T22:09:27.009Z,3.10
2023-02-16T22:11:54.292Z,3.10
2023-02-16T22:14:21.367Z,3.00
2023-02-16T22:16:50.796Z,3.00
2023-02-16T22:19:18.921Z,3.10
2023-02-16T22:21:48.036Z,3.00
2023-02-16T22:24:17.403Z,3.00
2023-02-16T22:26:45.969Z,3.00
2023-02-16T22:29:13.745Z,2.90
2023-02-16T22:31:46.387Z,2.90
2023-02-16T22:34:16.905Z,3.00
2023-02-16T22:36:44.176Z,2.90
2023-02-16T22:39:13.931Z,2.90
2023-02-16T22:41:42.754Z,2.90
2023-02-16T22:44:11.596Z,3.00
2023-02-16T22:46:39.228Z,2.90
2023-02-16T22:49:06.443Z,2.90
2023-02-16T22:51:33.595Z,2.90
2023-02-16T22:54:02.016Z,2.90
2023-02-16T22:56:31.034Z,2.90
2023-02-16T22:58:59.512Z,2.80
2023-02-16T23:01:28.791Z,2.80
2023-02-16T23:03:57.748Z,2.70
2023-02-16T23:06:37.174Z,2.70
2023-02-16T23:09:14.292Z,2.70
2023-02-16T23:11:41.813Z,2.70
2023-02-16T23:14:16.467Z,2.70
2023-02-16T23:16:52.178Z,2.60
2023-02-16T23:19:22.406Z,2.60
2023-02-16T23:21:49.981Z,2.60
2023-02-16T23:24:19.721Z,2.60
2023-02-16T23:26:47.033Z,2.60
2023-02-16T23:29:15.056Z,2.70
2023-02-16T23:31:43.694Z,2.70
2023-02-16T23:34:11.414Z,2.70
2023-02-16T23:36:39.487Z,2.70
2023-02-16T23:39:12.747Z,2.70
2023-02-16T23:41:41.124Z,2.70
2023-02-16T23:44:10.449Z,2.70
2023-02-16T23:46:37.488Z,2.70
2023-02-16T23:49:04.822Z,2.70
2023-02-16T23:51:32.006Z,2.60
2023-02-16T23:53:59.109Z,2.60
2023-02-16T23:56:27.842Z,2.60
2023-02-16T23:59:00.369Z,2.60
